sensor_id;sensor_type;location;lat;lon;timestamp;P1;durP1;ratioP1;P2;durP2;ratioP2
44564;SDS011;30275;51.822;-0.326;2022-09-13T00:01:01;4.57;;;2.85;;
44564;SDS011;30275;51.822;-0.326;2022-09-13T00:03:27;7.35;;;3.20;;
44564;SDS011;30275;51.822;-0.326;2022-09-13T00:05:52;4.65;;;3.40;;
44564;SDS011;30275;51.822;-0.326;2022-09-13T00:08:18;3.75;;;2.70;;
44564;SDS011;30275;51.822;-0.326;2022-09-13T00:10:44;4.22;;;2.50;;
44564;SDS011;30275;51.822;-0.326;2022-09-13T00:13:12;6.32;;;2.90;;
44564;SDS011;30275;51.822;-0.326;2022-09-13T00:15:45;7.07;;;3.50;;
44564;SDS011;30275;51.822;-0.326;2022-09-13T00:18:12;5.22;;;3.00;;
44564;SDS011;30275;51.822;-0.326;2022-09-13T00:20:39;4.45;;;2.80;;
44564;SDS011;30275;51.822;-0.326;2022-09-13T00:23:05;4.60;;;2.58;;
44564;SDS011;30275;51.822;-0.326;2022-09-13T00:25:31;2.97;;;2.67;;
44564;SDS011;30275;51.822;-0.326;2022-09-13T00:27:56;3.88;;;2.40;;
44564;SDS011;30275;51.822;-0.326;2022-09-13T00:30:22;6.75;;;2.95;;
44564;SDS011;30275;51.822;-0.326;2022-09-13T00:32:48;3.97;;;2.20;;
44564;SDS011;30275;51.822;-0.326;2022-09-13T00:35:13;3.72;;;2.15;;
44564;SDS011;30275;51.822;-0.326;2022-09-13T00:37:39;3.78;;;2.38;;
44564;SDS011;30275;51.822;-0.326;2022-09-13T00:40:05;2.95;;;2.17;;
44564;SDS011;30275;51.822;-0.326;2022-09-13T00:42:31;7.05;;;2.25;;
44564;SDS011;30275;51.822;-0.326;2022-09-13T00:45:01;4.70;;;2.70;;
44564;SDS011;30275;51.822;-0.326;2022-09-13T00:47:55;5.03;;;2.40;;
44564;SDS011;30275;51.822;-0.326;2022-09-13T00:50:39;5.10;;;2.20;;
44564;SDS011;30275;51.822;-0.326;2022-09-13T00:53:08;4.32;;;2.55;;
44564;SDS011;30275;51.822;-0.326;2022-09-13T00:55:42;3.13;;;2.20;;
44564;SDS011;30275;51.822;-0.326;2022-09-13T00:58:12;4.47;;;2.28;;
44564;SDS011;30275;51.822;-0.326;2022-09-13T01:00:44;3.28;;;2.05;;
44564;SDS011;30275;51.822;-0.326;2022-09-13T01:03:11;3.13;;;2.10;;
44564;SDS011;30275;51.822;-0.326;2022-09-13T01:05:40;4.20;;;2.38;;
44564;SDS011;30275;51.822;-0.326;2022-09-13T01:08:09;4.97;;;2.53;;
44564;SDS011;30275;51.822;-0.326;2022-09-13T01:10:40;3.95;;;2.53;;
44564;SDS011;30275;51.822;-0.326;2022-09-13T01:13:08;4.70;;;2.63;;
44564;SDS011;30275;51.822;-0.326;2022-09-13T01:15:41;4.65;;;2.60;;
44564;SDS011;30275;51.822;-0.326;2022-09-13T01:18:08;5.15;;;3.15;;
44564;SDS011;30275;51.822;-0.326;2022-09-13T01:24:47;7.68;;;3.00;;
44564;SDS011;30275;51.822;-0.326;2022-09-13T01:46:11;5.53;;;2.50;;
44564;SDS011;30275;51.822;-0.326;2022-09-13T01:57:13;4.18;;;2.95;;
44564;SDS011;30275;51.822;-0.326;2022-09-13T01:59:48;5.75;;;2.63;;
44564;SDS011;30275;51.822;-0.326;2022-09-13T02:04:47;3.53;;;2.45;;
44564;SDS011;30275;51.822;-0.326;2022-09-13T02:07:28;3.28;;;2.70;;
44564;SDS011;30275;51.822;-0.326;2022-09-13T02:10:08;3.25;;;2.60;;
44564;SDS011;30275;51.822;-0.326;2022-09-13T02:12:41;3.75;;;2.38;;
44564;SDS011;30275;51.822;-0.326;2022-09-13T02:17:49;3.10;;;2.28;;
44564;SDS011;30275;51.822;-0.326;2022-09-13T02:20:22;3.47;;;2.10;;
44564;SDS011;30275;51.822;-0.326;2022-09-13T02:22:53;3.40;;;2.55;;
44564;SDS011;30275;51.822;-0.326;2022-09-13T02:25:23;4.75;;;2.22;;
44564;SDS011;30275;51.822;-0.326;2022-09-13T02:27:53;3.42;;;2.30;;
44564;SDS011;30275;51.822;-0.326;2022-09-13T02:30:24;3.35;;;2.70;;
44564;SDS011;30275;51.822;-0.326;2022-09-13T02:32:56;3.42;;;2.30;;
44564;SDS011;30275;51.822;-0.326;2022-09-13T02:35:37;2.70;;;2.15;;
44564;SDS011;30275;51.822;-0.326;2022-09-13T02:38:19;2.95;;;2.15;;
44564;SDS011;30275;51.822;-0.326;2022-09-13T02:40:52;3.63;;;2.20;;
44564;SDS011;30275;51.822;-0.326;2022-09-13T02:43:42;3.42;;;2.38;;
44564;SDS011;30275;51.822;-0.326;2022-09-13T02:49:27;3.03;;;2.03;;
44564;SDS011;30275;51.822;-0.326;2022-09-13T02:52:18;3.97;;;2.58;;
44564;SDS011;30275;51.822;-0.326;2022-09-13T02:55:29;3.47;;;2.55;;
44564;SDS011;30275;51.822;-0.326;2022-09-13T03:00:30;3.10;;;2.45;;
44564;SDS011;30275;51.822;-0.326;2022-09-13T03:02:57;3.63;;;2.70;;
44564;SDS011;30275;51.822;-0.326;2022-09-13T03:05:26;3.13;;;2.35;;
44564;SDS011;30275;51.822;-0.326;2022-09-13T03:07:52;4.60;;;2.30;;
44564;SDS011;30275;51.822;-0.326;2022-09-13T03:10:19;5.50;;;2.58;;
44564;SDS011;30275;51.822;-0.326;2022-09-13T03:13:04;4.35;;;2.45;;
44564;SDS011;30275;51.822;-0.326;2022-09-13T03:16:05;4.38;;;2.53;;
44564;SDS011;30275;51.822;-0.326;2022-09-13T03:25:01;2.90;;;2.20;;
44564;SDS011;30275;51.822;-0.326;2022-09-13T03:27:51;3.22;;;2.40;;
44564;SDS011;30275;51.822;-0.326;2022-09-13T03:30:19;3.63;;;2.50;;
44564;SDS011;30275;51.822;-0.326;2022-09-13T03:38:00;3.70;;;2.63;;
44564;SDS011;30275;51.822;-0.326;2022-09-13T03:40:52;5.32;;;2.75;;
44564;SDS011;30275;51.822;-0.326;2022-09-13T03:43:25;4.22;;;2.80;;
44564;SDS011;30275;51.822;-0.326;2022-09-13T03:45:59;4.40;;;2.78;;
44564;SDS011;30275;51.822;-0.326;2022-09-13T03:48:31;4.95;;;3.03;;
44564;SDS011;30275;51.822;-0.326;2022-09-13T03:51:01;5.43;;;3.10;;
44564;SDS011;30275;51.822;-0.326;2022-09-13T03:53:29;4.97;;;3.38;;
44564;SDS011;30275;51.822;-0.326;2022-09-13T03:55:57;4.63;;;3.10;;
44564;SDS011;30275;51.822;-0.326;2022-09-13T03:58:24;4.85;;;3.35;;
44564;SDS011;30275;51.822;-0.326;2022-09-13T04:00:50;4.10;;;3.10;;
44564;SDS011;30275;51.822;-0.326;2022-09-13T04:03:18;4.70;;;2.83;;
44564;SDS011;30275;51.822;-0.326;2022-09-13T04:05:44;4.70;;;3.13;;
44564;SDS011;30275;51.822;-0.326;2022-09-13T04:08:10;5.53;;;3.63;;
44564;SDS011;30275;51.822;-0.326;2022-09-13T04:10:36;5.07;;;3.60;;
44564;SDS011;30275;51.822;-0.326;2022-09-13T04:13:01;4.25;;;3.65;;
44564;SDS011;30275;51.822;-0.326;2022-09-13T04:15:28;4.05;;;3.20;;
44564;SDS011;30275;51.822;-0.326;2022-09-13T04:17:57;5.38;;;3.97;;
44564;SDS011;30275;51.822;-0.326;2022-09-13T04:20:23;4.60;;;3.55;;
44564;SDS011;30275;51.822;-0.326;2022-09-13T04:22:50;5.40;;;4.72;;
44564;SDS011;30275;51.822;-0.326;2022-09-13T04:25:17;5.32;;;4.63;;
44564;SDS011;30275;51.822;-0.326;2022-09-13T04:27:43;5.18;;;3.90;;
44564;SDS011;30275;51.822;-0.326;2022-09-13T04:30:09;4.13;;;3.60;;
44564;SDS011;30275;51.822;-0.326;2022-09-13T04:32:35;4.88;;;3.90;;
44564;SDS011;30275;51.822;-0.326;2022-09-13T04:35:01;5.10;;;3.92;;
44564;SDS011;30275;51.822;-0.326;2022-09-13T04:37:26;5.20;;;4.10;;
44564;SDS011;30275;51.822;-0.326;2022-09-13T04:39:52;5.00;;;3.80;;
44564;SDS011;30275;51.822;-0.326;2022-09-13T04:42:17;5.60;;;3.25;;
44564;SDS011;30275;51.822;-0.326;2022-09-13T04:44:43;4.00;;;3.20;;
44564;SDS011;30275;51.822;-0.326;2022-09-13T04:47:09;3.95;;;3.08;;
44564;SDS011;30275;51.822;-0.326;2022-09-13T04:49:35;4.45;;;3.13;;
44564;SDS011;30275;51.822;-0.326;2022-09-13T04:52:00;3.22;;;2.50;;
44564;SDS011;30275;51.822;-0.326;2022-09-13T04:54:26;4.35;;;2.70;;
44564;SDS011;30275;51.822;-0.326;2022-09-13T04:56:52;2.88;;;2.28;;
44564;SDS011;30275;51.822;-0.326;2022-09-13T04:59:18;2.78;;;2.15;;
44564;SDS011;30275;51.822;-0.326;2022-09-13T05:01:44;2.58;;;2.00;;
44564;SDS011;30275;51.822;-0.326;2022-09-13T05:04:09;5.63;;;2.38;;
44564;SDS011;30275;51.822;-0.326;2022-09-13T05:06:35;4.80;;;2.00;;
44564;SDS011;30275;51.822;-0.326;2022-09-13T05:09:02;2.42;;;2.05;;
44564;SDS011;30275;51.822;-0.326;2022-09-13T05:11:28;2.65;;;1.67;;
44564;SDS011;30275;51.822;-0.326;2022-09-13T05:13:55;2.75;;;2.10;;
44564;SDS011;30275;51.822;-0.326;2022-09-13T05:16:26;1.63;;;1.52;;
44564;SDS011;30275;51.822;-0.326;2022-09-13T05:18:53;10.23;;;2.40;;
44564;SDS011;30275;51.822;-0.326;2022-09-13T05:21:19;4.25;;;2.15;;
44564;SDS011;30275;51.822;-0.326;2022-09-13T05:23:49;3.65;;;1.90;;
44564;SDS011;30275;51.822;-0.326;2022-09-13T05:26:19;6.00;;;1.80;;
44564;SDS011;30275;51.822;-0.326;2022-09-13T05:28:47;4.28;;;1.77;;
44564;SDS011;30275;51.822;-0.326;2022-09-13T05:31:16;4.80;;;1.60;;
44564;SDS011;30275;51.822;-0.326;2022-09-13T05:33:51;1.90;;;1.60;;
44564;SDS011;30275;51.822;-0.326;2022-09-13T05:36:18;2.17;;;1.90;;
44564;SDS011;30275;51.822;-0.326;2022-09-13T05:38:44;2.30;;;1.70;;
44564;SDS011;30275;51.822;-0.326;2022-09-13T05:41:09;2.97;;;1.63;;
44564;SDS011;30275;51.822;-0.326;2022-09-13T05:43:35;3.40;;;2.03;;
44564;SDS011;30275;51.822;-0.326;2022-09-13T05:46:02;3.33;;;2.00;;
44564;SDS011;30275;51.822;-0.326;2022-09-13T05:48:29;4.00;;;1.75;;
44564;SDS011;30275;51.822;-0.326;2022-09-13T05:50:55;2.92;;;1.63;;
44564;SDS011;30275;51.822;-0.326;2022-09-13T05:53:21;2.00;;;1.55;;
44564;SDS011;30275;51.822;-0.326;2022-09-13T05:55:46;3.15;;;1.88;;
44564;SDS011;30275;51.822;-0.326;2022-09-13T05:58:12;2.45;;;1.60;;
44564;SDS011;30275;51.822;-0.326;2022-09-13T06:00:38;5.15;;;2.05;;
44564;SDS011;30275;51.822;-0.326;2022-09-13T06:03:03;7.13;;;2.85;;
44564;SDS011;30275;51.822;-0.326;2022-09-13T06:05:29;15.45;;;2.42;;
44564;SDS011;30275;51.822;-0.326;2022-09-13T06:07:54;7.03;;;2.05;;
44564;SDS011;30275;51.822;-0.326;2022-09-13T06:10:20;2.28;;;1.60;;
44564;SDS011;30275;51.822;-0.326;2022-09-13T06:12:46;6.60;;;1.70;;
44564;SDS011;30275;51.822;-0.326;2022-09-13T06:15:14;2.75;;;1.50;;
44564;SDS011;30275;51.822;-0.326;2022-09-13T06:17:39;2.35;;;1.80;;
44564;SDS011;30275;51.822;-0.326;2022-09-13T06:20:05;2.30;;;1.40;;
44564;SDS011;30275;51.822;-0.326;2022-09-13T06:22:31;3.35;;;1.35;;
44564;SDS011;30275;51.822;-0.326;2022-09-13T06:24:59;5.30;;;2.47;;
44564;SDS011;30275;51.822;-0.326;2022-09-13T06:27:25;6.55;;;1.83;;
44564;SDS011;30275;51.822;-0.326;2022-09-13T06:29:50;5.03;;;2.05;;
44564;SDS011;30275;51.822;-0.326;2022-09-13T06:32:16;4.35;;;1.60;;
44564;SDS011;30275;51.822;-0.326;2022-09-13T06:34:41;7.40;;;2.17;;
44564;SDS011;30275;51.822;-0.326;2022-09-13T06:37:07;3.17;;;1.70;;
44564;SDS011;30275;51.822;-0.326;2022-09-13T06:39:33;5.28;;;1.90;;
44564;SDS011;30275;51.822;-0.326;2022-09-13T06:41:59;3.80;;;1.50;;
44564;SDS011;30275;51.822;-0.326;2022-09-13T06:44:25;3.53;;;1.73;;
44564;SDS011;30275;51.822;-0.326;2022-09-13T06:46:50;3.03;;;1.30;;
44564;SDS011;30275;51.822;-0.326;2022-09-13T06:49:16;6.43;;;2.25;;
44564;SDS011;30275;51.822;-0.326;2022-09-13T06:51:41;3.25;;;1.50;;
44564;SDS011;30275;51.822;-0.326;2022-09-13T06:54:07;5.15;;;1.63;;
44564;SDS011;30275;51.822;-0.326;2022-09-13T06:56:34;3.15;;;1.50;;
44564;SDS011;30275;51.822;-0.326;2022-09-13T06:59:02;3.85;;;1.40;;
44564;SDS011;30275;51.822;-0.326;2022-09-13T07:04:04;3.25;;;1.42;;
44564;SDS011;30275;51.822;-0.326;2022-09-13T07:06:35;5.38;;;1.70;;
44564;SDS011;30275;51.822;-0.326;2022-09-13T07:09:12;2.40;;;1.25;;
44564;SDS011;30275;51.822;-0.326;2022-09-13T07:11:42;2.58;;;1.33;;
44564;SDS011;30275;51.822;-0.326;2022-09-13T07:14:10;3.85;;;1.40;;
44564;SDS011;30275;51.822;-0.326;2022-09-13T07:16:41;2.58;;;1.45;;
44564;SDS011;30275;51.822;-0.326;2022-09-13T07:19:07;3.72;;;1.23;;
44564;SDS011;30275;51.822;-0.326;2022-09-13T07:21:37;2.00;;;1.55;;
44564;SDS011;30275;51.822;-0.326;2022-09-13T07:24:03;4.30;;;2.03;;
44564;SDS011;30275;51.822;-0.326;2022-09-13T07:26:29;2.90;;;1.20;;
44564;SDS011;30275;51.822;-0.326;2022-09-13T07:28:56;3.85;;;1.20;;
44564;SDS011;30275;51.822;-0.326;2022-09-13T07:33:54;3.63;;;1.20;;
44564;SDS011;30275;51.822;-0.326;2022-09-13T07:36:22;2.55;;;1.25;;
44564;SDS011;30275;51.822;-0.326;2022-09-13T07:38:49;3.72;;;1.60;;
44564;SDS011;30275;51.822;-0.326;2022-09-13T07:41:15;2.90;;;1.35;;
44564;SDS011;30275;51.822;-0.326;2022-09-13T07:43:43;2.63;;;1.02;;
44564;SDS011;30275;51.822;-0.326;2022-09-13T07:46:10;2.70;;;1.13;;
44564;SDS011;30275;51.822;-0.326;2022-09-13T07:48:41;1.58;;;1.23;;
44564;SDS011;30275;51.822;-0.326;2022-09-13T07:51:09;2.75;;;1.17;;
44564;SDS011;30275;51.822;-0.326;2022-09-13T07:53:36;1.40;;;0.90;;
44564;SDS011;30275;51.822;-0.326;2022-09-13T07:56:07;2.85;;;1.38;;
44564;SDS011;30275;51.822;-0.326;2022-09-13T07:58:41;2.17;;;1.35;;
44564;SDS011;30275;51.822;-0.326;2022-09-13T08:03:39;4.13;;;1.30;;
44564;SDS011;30275;51.822;-0.326;2022-09-13T08:06:06;3.83;;;1.55;;
44564;SDS011;30275;51.822;-0.326;2022-09-13T08:08:33;1.95;;;1.17;;
44564;SDS011;30275;51.822;-0.326;2022-09-13T08:10:59;1.95;;;1.33;;
44564;SDS011;30275;51.822;-0.326;2022-09-13T08:13:27;1.83;;;1.17;;
44564;SDS011;30275;51.822;-0.326;2022-09-13T08:15:53;2.80;;;1.45;;
44564;SDS011;30275;51.822;-0.326;2022-09-13T08:18:20;3.78;;;1.35;;
44564;SDS011;30275;51.822;-0.326;2022-09-13T08:20:46;2.67;;;1.40;;
44564;SDS011;30275;51.822;-0.326;2022-09-13T08:23:12;5.18;;;1.60;;
44564;SDS011;30275;51.822;-0.326;2022-09-13T08:25:38;2.95;;;1.38;;
44564;SDS011;30275;51.822;-0.326;2022-09-13T08:28:08;1.98;;;1.40;;
44564;SDS011;30275;51.822;-0.326;2022-09-13T08:30:38;3.58;;;1.55;;
44564;SDS011;30275;51.822;-0.326;2022-09-13T08:33:05;3.17;;;1.40;;
44564;SDS011;30275;51.822;-0.326;2022-09-13T08:35:31;3.15;;;1.65;;
44564;SDS011;30275;51.822;-0.326;2022-09-13T08:37:57;3.60;;;1.63;;
44564;SDS011;30275;51.822;-0.326;2022-09-13T08:40:25;2.65;;;1.48;;
44564;SDS011;30275;51.822;-0.326;2022-09-13T08:42:57;3.65;;;1.45;;
44564;SDS011;30275;51.822;-0.326;2022-09-13T08:45:26;3.90;;;1.60;;
44564;SDS011;30275;51.822;-0.326;2022-09-13T08:47:55;3.45;;;1.63;;
44564;SDS011;30275;51.822;-0.326;2022-09-13T08:50:26;1.92;;;1.50;;
44564;SDS011;30275;51.822;-0.326;2022-09-13T08:55:43;3.65;;;1.92;;
44564;SDS011;30275;51.822;-0.326;2022-09-13T08:58:36;6.47;;;1.70;;
44564;SDS011;30275;51.822;-0.326;2022-09-13T09:01:05;1.80;;;1.50;;
44564;SDS011;30275;51.822;-0.326;2022-09-13T09:06:07;3.13;;;1.50;;
44564;SDS011;30275;51.822;-0.326;2022-09-13T09:11:13;2.03;;;1.30;;
44564;SDS011;30275;51.822;-0.326;2022-09-13T09:14:04;5.93;;;1.80;;
44564;SDS011;30275;51.822;-0.326;2022-09-13T09:16:40;2.78;;;1.52;;
44564;SDS011;30275;51.822;-0.326;2022-09-13T09:22:08;3.92;;;1.75;;
44564;SDS011;30275;51.822;-0.326;2022-09-13T09:24:41;4.68;;;1.95;;
44564;SDS011;30275;51.822;-0.326;2022-09-13T09:27:13;4.05;;;2.03;;
44564;SDS011;30275;51.822;-0.326;2022-09-13T09:29:40;4.00;;;2.10;;
44564;SDS011;30275;51.822;-0.326;2022-09-13T09:32:55;4.35;;;1.95;;
44564;SDS011;30275;51.822;-0.326;2022-09-13T09:41:10;3.08;;;1.52;;
44564;SDS011;30275;51.822;-0.326;2022-09-13T09:43:51;7.22;;;1.73;;
44564;SDS011;30275;51.822;-0.326;2022-09-13T09:46:30;2.95;;;1.77;;
44564;SDS011;30275;51.822;-0.326;2022-09-13T09:49:03;5.40;;;1.65;;
44564;SDS011;30275;51.822;-0.326;2022-09-13T09:51:59;3.05;;;1.48;;
44564;SDS011;30275;51.822;-0.326;2022-09-13T09:54:32;2.92;;;1.50;;
44564;SDS011;30275;51.822;-0.326;2022-09-13T09:56:59;2.38;;;1.27;;
44564;SDS011;30275;51.822;-0.326;2022-09-13T09:59:29;3.35;;;1.50;;
44564;SDS011;30275;51.822;-0.326;2022-09-13T10:01:56;2.70;;;1.35;;
44564;SDS011;30275;51.822;-0.326;2022-09-13T10:04:23;1.80;;;1.63;;
44564;SDS011;30275;51.822;-0.326;2022-09-13T10:06:49;2.53;;;1.95;;
44564;SDS011;30275;51.822;-0.326;2022-09-13T10:11:58;4.47;;;1.23;;
44564;SDS011;30275;51.822;-0.326;2022-09-13T10:19:50;3.00;;;1.30;;
44564;SDS011;30275;51.822;-0.326;2022-09-13T10:22:18;1.98;;;1.25;;
44564;SDS011;30275;51.822;-0.326;2022-09-13T10:24:44;1.90;;;1.20;;
44564;SDS011;30275;51.822;-0.326;2022-09-13T10:27:19;2.67;;;1.48;;
44564;SDS011;30275;51.822;-0.326;2022-09-13T10:29:53;2.63;;;1.25;;
44564;SDS011;30275;51.822;-0.326;2022-09-13T10:32:23;3.63;;;1.92;;
44564;SDS011;30275;51.822;-0.326;2022-09-13T10:34:51;4.00;;;1.48;;
44564;SDS011;30275;51.822;-0.326;2022-09-13T10:37:19;2.70;;;0.95;;
44564;SDS011;30275;51.822;-0.326;2022-09-13T10:42:16;2.92;;;1.75;;
44564;SDS011;30275;51.822;-0.326;2022-09-13T10:45:06;3.63;;;1.40;;
44564;SDS011;30275;51.822;-0.326;2022-09-13T10:47:33;2.22;;;1.20;;
44564;SDS011;30275;51.822;-0.326;2022-09-13T10:55:30;2.25;;;1.83;;
44564;SDS011;30275;51.822;-0.326;2022-09-13T11:00:28;2.75;;;1.00;;
44564;SDS011;30275;51.822;-0.326;2022-09-13T11:08:11;2.08;;;1.27;;
44564;SDS011;30275;51.822;-0.326;2022-09-13T11:18:59;3.03;;;1.48;;
44564;SDS011;30275;51.822;-0.326;2022-09-13T11:21:42;4.72;;;1.88;;
44564;SDS011;30275;51.822;-0.326;2022-09-13T11:29:43;3.22;;;1.30;;
44564;SDS011;30275;51.822;-0.326;2022-09-13T11:37:43;2.08;;;1.30;;
44564;SDS011;30275;51.822;-0.326;2022-09-13T11:40:17;4.43;;;1.48;;
44564;SDS011;30275;51.822;-0.326;2022-09-13T11:43:45;2.55;;;1.52;;
44564;SDS011;30275;51.822;-0.326;2022-09-13T11:54:34;2.55;;;0.95;;
44564;SDS011;30275;51.822;-0.326;2022-09-13T11:57:22;1.95;;;1.20;;
44564;SDS011;30275;51.822;-0.326;2022-09-13T12:02:23;5.07;;;1.58;;
44564;SDS011;30275;51.822;-0.326;2022-09-13T12:04:54;1.65;;;1.17;;
44564;SDS011;30275;51.822;-0.326;2022-09-13T12:07:35;2.78;;;1.38;;
44564;SDS011;30275;51.822;-0.326;2022-09-13T12:12:51;2.67;;;1.50;;
44564;SDS011;30275;51.822;-0.326;2022-09-13T12:15:24;2.15;;;1.30;;
44564;SDS011;30275;51.822;-0.326;2022-09-13T12:18:30;3.60;;;1.38;;
44564;SDS011;30275;51.822;-0.326;2022-09-13T12:21:05;3.28;;;1.60;;
44564;SDS011;30275;51.822;-0.326;2022-09-13T12:32:03;2.03;;;1.20;;
44564;SDS011;30275;51.822;-0.326;2022-09-13T12:51:43;3.63;;;1.30;;
44564;SDS011;30275;51.822;-0.326;2022-09-13T12:57:02;3.05;;;1.42;;
44564;SDS011;30275;51.822;-0.326;2022-09-13T13:05:19;3.08;;;1.17;;
44564;SDS011;30275;51.822;-0.326;2022-09-13T13:10:58;2.83;;;1.40;;
44564;SDS011;30275;51.822;-0.326;2022-09-13T13:18:58;1.63;;;1.23;;
44564;SDS011;30275;51.822;-0.326;2022-09-13T13:21:27;2.78;;;1.20;;
44564;SDS011;30275;51.822;-0.326;2022-09-13T13:24:36;2.28;;;1.35;;
44564;SDS011;30275;51.822;-0.326;2022-09-13T13:26:56;3.40;;;1.30;;
44564;SDS011;30275;51.822;-0.326;2022-09-13T13:39:36;2.50;;;1.33;;
44564;SDS011;30275;51.822;-0.326;2022-09-13T14:02:39;3.38;;;1.95;;
44564;SDS011;30275;51.822;-0.326;2022-09-13T14:08:24;2.10;;;1.30;;
44564;SDS011;30275;51.822;-0.326;2022-09-13T14:19:20;2.20;;;1.90;;
44564;SDS011;30275;51.822;-0.326;2022-09-13T14:24:54;2.58;;;1.90;;
44564;SDS011;30275;51.822;-0.326;2022-09-13T14:27:25;3.90;;;1.45;;
44564;SDS011;30275;51.822;-0.326;2022-09-13T14:29:58;2.45;;;1.50;;
44564;SDS011;30275;51.822;-0.326;2022-09-13T14:32:28;3.78;;;1.30;;
44564;SDS011;30275;51.822;-0.326;2022-09-13T14:35:04;4.57;;;1.60;;
44564;SDS011;30275;51.822;-0.326;2022-09-13T14:37:35;2.72;;;1.40;;
44564;SDS011;30275;51.822;-0.326;2022-09-13T14:42:41;2.58;;;1.30;;
44564;SDS011;30275;51.822;-0.326;2022-09-13T14:45:13;2.47;;;1.50;;
44564;SDS011;30275;51.822;-0.326;2022-09-13T14:50:33;3.83;;;1.30;;
44564;SDS011;30275;51.822;-0.326;2022-09-13T14:53:04;4.45;;;1.40;;
44564;SDS011;30275;51.822;-0.326;2022-09-13T14:55:33;3.75;;;1.38;;
44564;SDS011;30275;51.822;-0.326;2022-09-13T14:58:24;3.40;;;1.33;;
44564;SDS011;30275;51.822;-0.326;2022-09-13T15:03:24;2.55;;;1.10;;
44564;SDS011;30275;51.822;-0.326;2022-09-13T15:05:52;1.60;;;1.13;;
44564;SDS011;30275;51.822;-0.326;2022-09-13T15:08:43;2.15;;;1.35;;
44564;SDS011;30275;51.822;-0.326;2022-09-13T15:11:12;2.70;;;1.73;;
44564;SDS011;30275;51.822;-0.326;2022-09-13T15:14:24;2.65;;;1.42;;
44564;SDS011;30275;51.822;-0.326;2022-09-13T15:22:04;2.28;;;1.13;;
44564;SDS011;30275;51.822;-0.326;2022-09-13T15:24:33;2.25;;;1.30;;
44564;SDS011;30275;51.822;-0.326;2022-09-13T15:27:06;2.80;;;1.50;;
44564;SDS011;30275;51.822;-0.326;2022-09-13T15:29:46;4.18;;;1.70;;
44564;SDS011;30275;51.822;-0.326;2022-09-13T15:32:41;3.10;;;1.25;;
44564;SDS011;30275;51.822;-0.326;2022-09-13T15:37:46;2.58;;;1.30;;
44564;SDS011;30275;51.822;-0.326;2022-09-13T15:40:22;3.15;;;1.20;;
44564;SDS011;30275;51.822;-0.326;2022-09-13T15:42:53;1.63;;;1.30;;
44564;SDS011;30275;51.822;-0.326;2022-09-13T15:45:20;3.17;;;1.33;;
44564;SDS011;30275;51.822;-0.326;2022-09-13T15:47:50;3.40;;;1.42;;
44564;SDS011;30275;51.822;-0.326;2022-09-13T15:50:27;4.18;;;1.30;;
44564;SDS011;30275;51.822;-0.326;2022-09-13T15:52:55;3.00;;;1.63;;
44564;SDS011;30275;51.822;-0.326;2022-09-13T15:55:22;4.38;;;1.50;;
44564;SDS011;30275;51.822;-0.326;2022-09-13T15:57:49;3.85;;;1.67;;
44564;SDS011;30275;51.822;-0.326;2022-09-13T16:00:16;3.28;;;1.38;;
44564;SDS011;30275;51.822;-0.326;2022-09-13T16:02:44;4.55;;;1.70;;
44564;SDS011;30275;51.822;-0.326;2022-09-13T16:05:09;5.63;;;1.90;;
44564;SDS011;30275;51.822;-0.326;2022-09-13T16:07:36;3.60;;;1.83;;
44564;SDS011;30275;51.822;-0.326;2022-09-13T16:10:02;5.45;;;1.75;;
44564;SDS011;30275;51.822;-0.326;2022-09-13T16:12:31;7.03;;;2.05;;
44564;SDS011;30275;51.822;-0.326;2022-09-13T16:14:57;5.40;;;1.92;;
44564;SDS011;30275;51.822;-0.326;2022-09-13T16:17:25;7.95;;;1.90;;
44564;SDS011;30275;51.822;-0.326;2022-09-13T16:19:51;4.10;;;1.48;;
44564;SDS011;30275;51.822;-0.326;2022-09-13T16:22:18;6.70;;;2.20;;
44564;SDS011;30275;51.822;-0.326;2022-09-13T16:24:44;5.72;;;1.70;;
44564;SDS011;30275;51.822;-0.326;2022-09-13T16:27:13;4.82;;;1.80;;
44564;SDS011;30275;51.822;-0.326;2022-09-13T16:29:40;2.75;;;1.60;;
44564;SDS011;30275;51.822;-0.326;2022-09-13T16:32:06;3.47;;;1.65;;
44564;SDS011;30275;51.822;-0.326;2022-09-13T16:34:32;3.05;;;1.63;;
44564;SDS011;30275;51.822;-0.326;2022-09-13T16:36:57;4.25;;;2.00;;
44564;SDS011;30275;51.822;-0.326;2022-09-13T16:39:23;10.50;;;4.82;;
44564;SDS011;30275;51.822;-0.326;2022-09-13T16:41:49;8.82;;;4.20;;
44564;SDS011;30275;51.822;-0.326;2022-09-13T16:44:14;7.25;;;3.83;;
44564;SDS011;30275;51.822;-0.326;2022-09-13T16:46:40;8.57;;;4.18;;
44564;SDS011;30275;51.822;-0.326;2022-09-13T16:49:06;7.35;;;3.58;;
44564;SDS011;30275;51.822;-0.326;2022-09-13T16:51:32;2.33;;;1.33;;
44564;SDS011;30275;51.822;-0.326;2022-09-13T16:53:58;6.28;;;2.45;;
44564;SDS011;30275;51.822;-0.326;2022-09-13T16:56:24;5.03;;;2.38;;
44564;SDS011;30275;51.822;-0.326;2022-09-13T16:58:51;4.70;;;2.47;;
44564;SDS011;30275;51.822;-0.326;2022-09-13T17:01:18;4.65;;;2.00;;
44564;SDS011;30275;51.822;-0.326;2022-09-13T17:03:45;5.50;;;1.95;;
44564;SDS011;30275;51.822;-0.326;2022-09-13T17:06:12;6.05;;;3.10;;
44564;SDS011;30275;51.822;-0.326;2022-09-13T17:08:40;6.22;;;2.85;;
44564;SDS011;30275;51.822;-0.326;2022-09-13T17:11:10;9.88;;;3.00;;
44564;SDS011;30275;51.822;-0.326;2022-09-13T17:13:38;6.85;;;2.75;;
44564;SDS011;30275;51.822;-0.326;2022-09-13T17:16:05;6.43;;;3.22;;
44564;SDS011;30275;51.822;-0.326;2022-09-13T17:18:32;5.57;;;1.98;;
44564;SDS011;30275;51.822;-0.326;2022-09-13T17:21:00;5.57;;;1.70;;
44564;SDS011;30275;51.822;-0.326;2022-09-13T17:23:26;3.72;;;1.48;;
44564;SDS011;30275;51.822;-0.326;2022-09-13T17:25:52;3.95;;;1.80;;
44564;SDS011;30275;51.822;-0.326;2022-09-13T17:28:18;4.13;;;1.50;;
44564;SDS011;30275;51.822;-0.326;2022-09-13T17:30:44;4.80;;;1.38;;
44564;SDS011;30275;51.822;-0.326;2022-09-13T17:33:10;6.30;;;2.05;;
44564;SDS011;30275;51.822;-0.326;2022-09-13T17:35:36;9.18;;;3.35;;
44564;SDS011;30275;51.822;-0.326;2022-09-13T17:38:02;4.68;;;1.58;;
44564;SDS011;30275;51.822;-0.326;2022-09-13T17:40:29;6.43;;;1.80;;
44564;SDS011;30275;51.822;-0.326;2022-09-13T17:42:56;4.40;;;1.70;;
44564;SDS011;30275;51.822;-0.326;2022-09-13T17:45:21;6.18;;;1.60;;
44564;SDS011;30275;51.822;-0.326;2022-09-13T17:47:50;6.32;;;1.88;;
44564;SDS011;30275;51.822;-0.326;2022-09-13T17:50:17;6.90;;;1.83;;
44564;SDS011;30275;51.822;-0.326;2022-09-13T17:52:42;6.85;;;2.40;;
44564;SDS011;30275;51.822;-0.326;2022-09-13T17:55:08;9.88;;;2.35;;
44564;SDS011;30275;51.822;-0.326;2022-09-13T17:57:34;4.22;;;2.00;;
44564;SDS011;30275;51.822;-0.326;2022-09-13T18:00:00;5.25;;;2.47;;
44564;SDS011;30275;51.822;-0.326;2022-09-13T18:02:27;3.70;;;2.33;;
44564;SDS011;30275;51.822;-0.326;2022-09-13T18:04:53;8.77;;;3.88;;
44564;SDS011;30275;51.822;-0.326;2022-09-13T18:07:19;5.32;;;2.50;;
44564;SDS011;30275;51.822;-0.326;2022-09-13T18:09:44;4.38;;;2.17;;
44564;SDS011;30275;51.822;-0.326;2022-09-13T18:12:11;6.47;;;2.70;;
44564;SDS011;30275;51.822;-0.326;2022-09-13T18:14:37;5.13;;;2.13;;
44564;SDS011;30275;51.822;-0.326;2022-09-13T18:17:03;6.57;;;3.45;;
44564;SDS011;30275;51.822;-0.326;2022-09-13T18:19:37;6.57;;;2.10;;
44564;SDS011;30275;51.822;-0.326;2022-09-13T18:22:04;3.80;;;1.90;;
44564;SDS011;30275;51.822;-0.326;2022-09-13T18:24:30;9.80;;;2.83;;
44564;SDS011;30275;51.822;-0.326;2022-09-13T18:26:57;7.10;;;3.20;;
44564;SDS011;30275;51.822;-0.326;2022-09-13T18:29:23;4.85;;;2.10;;
44564;SDS011;30275;51.822;-0.326;2022-09-13T18:31:50;5.57;;;1.73;;
44564;SDS011;30275;51.822;-0.326;2022-09-13T18:34:15;4.93;;;2.20;;
44564;SDS011;30275;51.822;-0.326;2022-09-13T18:36:41;5.38;;;1.85;;
44564;SDS011;30275;51.822;-0.326;2022-09-13T18:39:08;12.05;;;2.33;;
44564;SDS011;30275;51.822;-0.326;2022-09-13T18:41:39;3.22;;;1.80;;
44564;SDS011;30275;51.822;-0.326;2022-09-13T18:44:05;6.93;;;2.80;;
44564;SDS011;30275;51.822;-0.326;2022-09-13T18:46:33;3.92;;;1.67;;
44564;SDS011;30275;51.822;-0.326;2022-09-13T18:48:59;3.47;;;1.67;;